Batesville, VA (22924)

5:26 PM EDT on September 03, 2015 (GMT -0400)
Yancey Mills | | Change Station
CLOSE
Current Station
Personal Weather Station
Location: Crozet, VA
Elevation: 748 ft
Nearby Weather Stations

Elev 748 ft 38.05 °N, 78.72 °W | Updated 5 seconds ago

Partly Cloudy
Partly Cloudy
86.4 °F
Feels Like 88 °F
N
0.7
Wind Variable Wind from West
Gusts 6.9 mph

Today
High -- | Low -- °F
--% Chance of Precip.
Yesterday
High -- | Low -- °F
Precip. -- in
6:46 AM 7:41 PM
Waning Gibbous, 67% visible
Pressure 29.86 in
Visibility 10.0 miles
Clouds Clear
Heat Index 88 °F
Dew Point 64 °F
Humidity 48%
Rainfall 0.00 in
Snow Depth Not available.
UV 3 out of 12
Pollen 9.70 out of 12
Air Quality Not available.
Flu Activity Not available.
METAR KCHO 032053Z 33005KT 10SM CLR 30/20 A2988 RMK AO2 SLP110 T03000200 56018
Pressure 29.86 in
Visibility 10.0 miles
Clouds Clear
Heat Index 88 °F
Dew Point 64 °F
Humidity 48%
Rainfall 0.00 in
Snow Depth Not available.
UV 3 out of 12
Pollen 9.70 out of 12
Air Quality Not available.
Flu Activity Not available.
METAR KCHO 032053Z 33005KT 10SM CLR 30/20 A2988 RMK AO2 SLP110 T03000200 56018

10-Day Weather Forecast

×

Almanac

Astronomy

Sep. 03, 2015 Rise Set
Actual Time
Civil Twilight
Nautical Twilight
Astronomical Twilight
Moon
Length of Visible Light
Length of Day
Tomorrow will be .
, % of the Moon is Illuminated

Today's Extremes

State Highs State Lows

Community

WunderPhotos

Upload Photos

1,852,038 photos uploaded!

WunderBlogs® & News

Nearby

Air Quality

  Air Quality AQ Index Pollutant
Not available.

Snow Depth

Station Depth Elevation

Earthquake Activity

City Distance Mag. Time & Date
Minimum magnitude displayed is 2.5.

Coastal Water Temperatures

Place Temperature

Stations

Nearby Weather Stations

Station Location Temp. Windchill Dew Point Humidity Wind Precip. Elev Updated Type